createdAt,value
2023-01-10T00:01:39.850Z,12.16
2023-01-10T00:04:06.899Z,12.14
2023-01-10T00:06:37.040Z,12.14
2023-01-10T00:09:07.201Z,12.14
2023-01-10T00:11:52.612Z,12.11
2023-01-10T00:14:29.014Z,12.13
2023-01-10T00:16:57.702Z,12.15
2023-01-10T00:19:25.265Z,12.13
2023-01-10T00:21:52.775Z,12.13
2023-01-10T00:24:20.915Z,12.11
2023-01-10T00:26:56.252Z,12.09
2023-01-10T00:29:32.132Z,12.08
2023-01-10T00:38:46.667Z,11.86
2023-01-10T00:41:35.649Z,11.84
2023-01-10T00:44:06.814Z,11.81
2023-01-10T00:46:34.378Z,11.80
2023-01-10T00:49:02.150Z,11.79
2023-01-10T00:51:31.055Z,11.76
2023-01-10T00:53:58.822Z,11.74
2023-01-10T00:56:26.287Z,11.72
2023-01-10T00:58:53.626Z,11.70
2023-01-10T01:01:21.027Z,11.63
2023-01-10T01:03:48.217Z,11.64
2023-01-10T01:06:16.285Z,11.61
2023-01-10T01:08:43.330Z,11.63
2023-01-10T01:11:13.135Z,11.59
2023-01-10T01:13:42.496Z,11.57
2023-01-10T01:16:10.084Z,11.53
2023-01-10T01:18:37.173Z,11.49
2023-01-10T01:21:08.596Z,11.46
2023-01-10T01:23:36.119Z,11.43
2023-01-10T01:26:05.995Z,11.40
2023-01-10T01:28:33.688Z,11.34
2023-01-10T01:31:10.611Z,11.33
2023-01-10T01:33:37.933Z,11.26
2023-01-10T01:36:10.106Z,11.22
2023-01-10T01:38:41.025Z,11.21
2023-01-10T01:41:32.025Z,11.08
2023-01-10T01:44:07.631Z,11.02
2023-01-10T01:46:37.686Z,10.97
2023-01-10T01:49:12.566Z,10.98
2023-01-10T01:51:39.738Z,10.90
2023-01-10T01:54:12.174Z,10.83
2023-01-10T01:56:46.533Z,10.78
2023-01-10T01:59:22.088Z,10.75
2023-01-10T02:02:10.586Z,10.69
2023-01-10T02:04:57.626Z,10.67
2023-01-10T02:07:26.412Z,10.59
2023-01-10T02:10:05.265Z,10.56
2023-01-10T02:12:33.343Z,10.49
2023-01-10T02:15:01.068Z,10.42
2023-01-10T02:17:28.114Z,10.34
2023-01-10T02:20:03.441Z,10.31
2023-01-10T02:23:10.327Z,10.24
2023-01-10T02:26:19.597Z,10.14
2023-01-10T02:29:21.853Z,10.06
2023-01-10T02:31:48.766Z,9.98
2023-01-10T02:37:38.079Z,9.88
2023-01-10T02:40:19.600Z,9.79
2023-01-10T02:42:54.001Z,9.79
2023-01-10T02:45:52.570Z,9.79
2023-01-10T02:48:19.596Z,9.72
2023-01-10T02:51:19.265Z,9.70
2023-01-10T02:53:56.792Z,9.67
2023-01-10T02:56:54.535Z,9.57
2023-01-10T02:59:43.200Z,9.55
2023-01-10T03:02:16.240Z,9.45
2023-01-10T03:04:53.668Z,9.43
2023-01-10T03:07:27.633Z,9.40
2023-01-10T03:10:01.866Z,9.34
2023-01-10T03:12:31.694Z,9.31
2023-01-10T03:15:00.869Z,9.29
2023-01-10T03:17:33.580Z,9.19
2023-01-10T03:20:05.498Z,9.13
2023-01-10T03:22:36.273Z,9.12
2023-01-10T03:25:07.319Z,9.11
2023-01-10T03:27:40.179Z,9.00
2023-01-10T03:30:34.234Z,8.90
2023-01-10T03:33:01.701Z,8.89
2023-01-10T03:35:54.650Z,8.92
2023-01-10T03:38:26.218Z,8.90
2023-01-10T03:41:02.167Z,8.85
2023-01-10T03:44:14.079Z,8.85
2023-01-10T03:46:52.759Z,8.83
2023-01-10T03:49:23.377Z,8.78
2023-01-10T03:51:50.989Z,8.80
2023-01-10T03:54:18.153Z,8.82
2023-01-10T03:56:50.108Z,8.81
2023-01-10T03:59:23.491Z,8.80
2023-01-10T04:01:51.090Z,8.78
2023-01-10T04:04:25.627Z,8.75
2023-01-10T04:06:52.534Z,8.73
2023-01-10T04:09:25.593Z,8.74
2023-01-10T04:11:56.283Z,8.72
2023-01-10T04:14:23.341Z,8.69
2023-01-10T04:16:50.376Z,8.68
2023-01-10T04:19:17.367Z,8.64
2023-01-10T04:21:44.451Z,8.61
2023-01-10T04:24:11.463Z,8.58
2023-01-10T04:26:38.466Z,8.54
2023-01-10T04:29:10.923Z,8.50
2023-01-10T04:31:40.734Z,8.48
2023-01-10T04:34:08.923Z,8.41
2023-01-10T04:36:36.737Z,8.37
2023-01-10T04:39:04.926Z,8.39
2023-01-10T04:41:40.010Z,8.36
2023-01-10T04:44:10.230Z,8.30
2023-01-10T04:46:37.193Z,8.27
2023-01-10T04:49:04.530Z,8.27
2023-01-10T04:51:31.585Z,8.26
2023-01-10T04:53:58.527Z,8.25
2023-01-10T04:56:25.932Z,8.30
2023-01-10T04:58:54.094Z,8.29
2023-01-10T05:01:24.155Z,8.28
2023-01-10T05:03:53.658Z,8.30
2023-01-10T05:06:22.153Z,8.26
2023-01-10T05:08:49.263Z,8.27
2023-01-10T05:11:16.461Z,8.24
2023-01-10T05:13:43.515Z,8.26
2023-01-10T05:16:10.560Z,8.24
2023-01-10T05:18:37.601Z,8.27
2023-01-10T05:21:08.022Z,8.26
2023-01-10T05:23:35.835Z,8.25
2023-01-10T05:26:11.072Z,8.22
2023-01-10T05:28:38.466Z,8.23
2023-01-10T05:31:13.415Z,8.25
2023-01-10T05:33:43.872Z,8.23
2023-01-10T05:36:10.887Z,8.21
2023-01-10T05:38:37.968Z,8.19
2023-01-10T05:41:05.195Z,8.20
2023-01-10T05:43:32.533Z,8.22
2023-01-10T05:45:59.564Z,8.23
2023-01-10T05:48:26.587Z,8.23
2023-01-10T05:50:53.541Z,8.22
2023-01-10T05:53:20.629Z,8.20
2023-01-10T05:55:59.016Z,8.21
2023-01-10T05:58:27.908Z,8.19
2023-01-10T06:00:56.247Z,8.16
2023-01-10T06:03:23.640Z,8.17
2023-01-10T06:05:50.645Z,8.13
2023-01-10T06:08:17.658Z,8.18
2023-01-10T06:10:44.839Z,8.19
2023-01-10T06:13:12.434Z,8.21
2023-01-10T06:15:39.766Z,8.24
2023-01-10T06:18:07.322Z,8.24
2023-01-10T06:20:34.245Z,8.28
2023-01-10T06:23:04.710Z,8.30
2023-01-10T06:25:42.640Z,8.31
2023-01-10T06:28:10.857Z,8.35
2023-01-10T06:30:38.730Z,8.37
2023-01-10T06:33:08.800Z,8.38
2023-01-10T06:35:36.493Z,8.38
2023-01-10T06:38:04.641Z,8.39
2023-01-10T06:40:31.969Z,8.40
2023-01-10T06:42:59.357Z,8.43
2023-01-10T06:45:26.351Z,8.41
2023-01-10T06:47:53.586Z,8.44
2023-01-10T06:50:20.586Z,8.46
2023-01-10T06:53:04.854Z,8.48
2023-01-10T06:55:32.146Z,8.49
2023-01-10T06:58:04.751Z,8.50
2023-01-10T07:00:32.495Z,8.48
2023-01-10T07:03:00.793Z,8.49
2023-01-10T07:05:29.812Z,8.52
2023-01-10T07:07:58.831Z,8.52
2023-01-10T07:10:25.956Z,8.55
2023-01-10T07:12:55.468Z,8.57
2023-01-10T07:15:22.617Z,8.60
2023-01-10T07:17:49.649Z,8.64
2023-01-10T07:20:17.067Z,8.65
2023-01-10T07:22:44.110Z,8.69
2023-01-10T07:25:11.088Z,8.75
2023-01-10T07:27:40.064Z,8.80
2023-01-10T07:30:07.954Z,8.86
2023-01-10T07:32:35.241Z,8.93
2023-01-10T07:35:02.536Z,9.15
2023-01-10T07:37:29.515Z,9.44
2023-01-10T07:39:56.514Z,9.68
2023-01-10T07:42:24.089Z,10.20
2023-01-10T07:44:51.017Z,11.39
2023-01-10T07:47:18.184Z,13.34
2023-01-10T07:49:45.107Z,14.93
2023-01-10T07:52:12.015Z,16.25
2023-01-10T07:54:39.031Z,17.24
2023-01-10T07:57:05.970Z,18.52
2023-01-10T07:59:32.906Z,19.69
2023-01-10T08:01:59.803Z,20.84
2023-01-10T08:04:27.314Z,21.87
2023-01-10T08:06:55.424Z,22.62
2023-01-10T08:09:22.424Z,23.68
2023-01-10T08:11:49.472Z,24.72
2023-01-10T08:14:16.404Z,25.13
2023-01-10T08:16:43.356Z,26.30
2023-01-10T08:19:12.616Z,26.99
2023-01-10T08:21:39.781Z,27.12
2023-01-10T08:24:07.301Z,27.09
2023-01-10T08:26:34.469Z,27.15
2023-01-10T08:29:01.859Z,26.71
2023-01-10T08:31:28.934Z,26.64
2023-01-10T08:33:57.058Z,26.79
2023-01-10T08:36:24.457Z,28.41
2023-01-10T08:38:54.875Z,29.64
2023-01-10T08:41:21.883Z,30.34
2023-01-10T08:43:52.042Z,30.68
2023-01-10T08:46:20.576Z,30.59
2023-01-10T08:48:50.455Z,30.83
2023-01-10T08:51:18.177Z,32.21
2023-01-10T08:53:45.514Z,33.51
2023-01-10T08:56:12.517Z,34.48
2023-01-10T08:58:39.552Z,34.98
2023-01-10T09:01:12.009Z,35.19
2023-01-10T09:03:39.983Z,35.21
2023-01-10T09:06:08.381Z,35.98
2023-01-10T09:08:36.144Z,33.48
2023-01-10T09:11:03.680Z,31.38
2023-01-10T09:13:31.173Z,33.95
2023-01-10T09:15:58.518Z,35.83
2023-01-10T09:18:26.391Z,36.86
2023-01-10T09:20:53.715Z,35.99
2023-01-10T09:23:22.590Z,35.09
2023-01-10T09:25:52.375Z,35.76
2023-01-10T09:28:20.529Z,36.41
2023-01-10T09:30:48.025Z,36.19
2023-01-10T09:33:15.487Z,38.09
2023-01-10T09:35:43.405Z,39.22
2023-01-10T09:38:14.795Z,40.14
2023-01-10T09:41:00.435Z,40.57
2023-01-10T09:44:04.770Z,39.92
2023-01-10T09:46:34.986Z,38.54
2023-01-10T09:49:20.600Z,35.89
2023-01-10T09:51:52.582Z,35.13
2023-01-10T09:54:37.946Z,35.18
2023-01-10T09:57:05.043Z,34.88
2023-01-10T09:59:43.062Z,34.38
2023-01-10T10:02:36.835Z,32.97
2023-01-10T10:05:21.680Z,33.19
2023-01-10T10:07:54.599Z,33.13
2023-01-10T10:10:43.715Z,34.05
2023-01-10T10:13:28.973Z,33.63
2023-01-10T10:16:15.241Z,34.35
2023-01-10T10:19:02.187Z,34.97
2023-01-10T10:21:48.240Z,36.15
2023-01-10T10:24:30.355Z,36.49
2023-01-10T10:27:09.419Z,37.70
2023-01-10T10:29:46.493Z,36.98
2023-01-10T10:32:25.449Z,37.36
2023-01-10T10:35:08.354Z,37.77
2023-01-10T10:37:45.971Z,38.96
2023-01-10T10:40:18.973Z,38.90
2023-01-10T10:42:50.663Z,38.97
2023-01-10T10:45:20.032Z,38.51
2023-01-10T10:48:01.501Z,40.01
2023-01-10T10:50:34.909Z,39.57
2023-01-10T10:53:06.072Z,38.79
2023-01-10T10:55:37.951Z,39.04
2023-01-10T10:58:07.773Z,38.47
2023-01-10T11:00:35.011Z,36.47
2023-01-10T11:03:27.354Z,35.23
2023-01-10T11:05:55.442Z,33.91
2023-01-10T11:08:23.672Z,31.81
2023-01-10T11:10:55.437Z,31.23
2023-01-10T11:13:34.393Z,31.32
2023-01-10T11:16:04.776Z,33.86
2023-01-10T11:18:33.610Z,34.90
2023-01-10T11:21:04.910Z,33.80
2023-01-10T11:23:43.740Z,32.06
2023-01-10T11:26:25.493Z,33.86
2023-01-10T11:29:18.839Z,37.70
2023-01-10T11:31:47.533Z,33.93
2023-01-10T11:34:30.224Z,30.89
2023-01-10T11:37:04.809Z,28.64
2023-01-10T11:39:32.883Z,27.13
2023-01-10T11:42:25.695Z,26.34
2023-01-10T11:44:52.750Z,25.56
2023-01-10T11:47:21.112Z,25.11
2023-01-10T11:49:50.334Z,24.74
2023-01-10T11:52:17.223Z,24.34
2023-01-10T11:54:44.686Z,23.87
2023-01-10T11:57:22.770Z,23.77
2023-01-10T12:00:17.651Z,23.56
2023-01-10T12:02:45.127Z,23.44
2023-01-10T12:05:23.726Z,23.21
2023-01-10T12:08:06.991Z,23.08
2023-01-10T12:10:35.285Z,22.82
2023-01-10T12:13:15.244Z,22.72
2023-01-10T12:15:42.584Z,22.11
2023-01-10T12:18:12.304Z,21.95
2023-01-10T12:20:52.136Z,21.98
2023-01-10T12:23:22.096Z,22.02
2023-01-10T12:25:51.507Z,22.19
2023-01-10T12:28:27.772Z,22.09
2023-01-10T12:30:58.256Z,22.10
2023-01-10T12:33:29.646Z,22.06
2023-01-10T12:36:13.617Z,21.93
2023-01-10T12:39:04.613Z,21.89
2023-01-10T12:42:00.990Z,21.88
2023-01-10T12:44:44.335Z,21.80
2023-01-10T12:47:23.637Z,21.76
2023-01-10T12:50:03.333Z,21.64
2023-01-10T12:52:36.283Z,21.45
2023-01-10T12:55:03.839Z,21.22
2023-01-10T12:57:36.142Z,21.25
2023-01-10T13:00:08.015Z,21.19
2023-01-10T13:02:44.055Z,21.03
2023-01-10T13:05:23.807Z,21.05
2023-01-10T13:07:54.737Z,20.99
2023-01-10T13:10:24.747Z,20.97
2023-01-10T13:13:20.677Z,20.98
2023-01-10T13:16:09.224Z,20.75
2023-01-10T13:18:36.230Z,20.79
2023-01-10T13:21:14.565Z,20.84
2023-01-10T13:23:58.136Z,20.71
2023-01-10T13:26:25.367Z,20.64
2023-01-10T13:28:58.520Z,20.58
2023-01-10T13:31:35.341Z,20.58
2023-01-10T13:34:13.541Z,20.50
2023-01-10T13:36:43.741Z,20.54
2023-01-10T13:39:38.640Z,20.49
2023-01-10T13:42:24.831Z,20.48
2023-01-10T13:45:01.502Z,20.43
2023-01-10T13:47:40.768Z,20.42
2023-01-10T13:50:23.098Z,20.34
2023-01-10T13:52:51.581Z,20.29
2023-01-10T13:55:26.347Z,20.23
2023-01-10T13:57:56.391Z,20.12
2023-01-10T14:01:03.968Z,19.99
2023-01-10T14:03:44.688Z,20.01
2023-01-10T14:06:21.817Z,19.98
2023-01-10T14:08:54.566Z,19.94
2023-01-10T14:11:25.196Z,19.93
2023-01-10T14:13:55.713Z,19.69
2023-01-10T14:16:36.859Z,19.45
2023-01-10T14:19:08.223Z,19.29
2023-01-10T14:21:45.489Z,19.13
2023-01-10T14:24:50.425Z,19.01
2023-01-10T14:27:19.729Z,18.73
2023-01-10T14:29:53.693Z,18.57
2023-01-10T14:32:51.095Z,18.40
2023-01-10T14:35:24.842Z,18.39
2023-01-10T14:37:59.163Z,18.30
2023-01-10T14:40:31.086Z,18.26
2023-01-10T14:43:04.070Z,18.19
2023-01-10T14:45:37.005Z,18.06
2023-01-10T14:48:22.966Z,18.00
2023-01-10T14:50:49.858Z,17.96
2023-01-10T14:53:36.989Z,17.79
2023-01-10T14:56:03.988Z,17.67
2023-01-10T14:58:31.088Z,17.67
2023-01-10T15:00:58.631Z,17.59
2023-01-10T15:03:25.947Z,17.59
2023-01-10T15:05:56.853Z,17.52
2023-01-10T15:08:31.893Z,17.35
2023-01-10T15:11:08.216Z,17.30
2023-01-10T15:13:57.952Z,17.18
2023-01-10T15:16:28.191Z,17.08
2023-01-10T15:18:56.816Z,16.90
2023-01-10T15:21:25.777Z,16.79
2023-01-10T15:23:52.891Z,16.71
2023-01-10T15:26:25.986Z,16.71
2023-01-10T15:29:23.606Z,16.57
2023-01-10T15:31:53.595Z,16.52
2023-01-10T15:34:26.272Z,16.48
2023-01-10T15:36:56.278Z,16.44
2023-01-10T15:39:27.452Z,16.37
2023-01-10T15:42:01.352Z,16.36
2023-01-10T15:44:40.986Z,16.31
2023-01-10T15:47:33.747Z,16.28
2023-01-10T15:50:02.827Z,16.22
2023-01-10T15:52:59.067Z,16.21
2023-01-10T15:55:45.796Z,16.14
2023-01-10T15:58:30.167Z,16.06
2023-01-10T16:01:03.918Z,15.97
2023-01-10T16:07:27.696Z,15.88
2023-01-10T16:10:08.634Z,15.84
2023-01-10T16:16:19.336Z,15.69
2023-01-10T16:18:46.258Z,15.63
2023-01-10T16:22:08.322Z,15.56
2023-01-10T16:24:36.487Z,15.52
2023-01-10T16:27:06.550Z,15.47
2023-01-10T16:29:34.370Z,15.47
2023-01-10T16:32:16.284Z,15.43
2023-01-10T16:34:44.073Z,15.41
2023-01-10T16:37:11.049Z,15.39
2023-01-10T16:39:37.991Z,15.36
2023-01-10T16:42:23.570Z,15.35
2023-01-10T16:44:50.495Z,15.32
2023-01-10T16:47:17.394Z,15.25
2023-01-10T16:49:45.533Z,15.31
2023-01-10T16:52:14.828Z,15.32
2023-01-10T16:54:41.844Z,15.30
2023-01-10T16:57:11.464Z,15.25
2023-01-10T16:59:39.581Z,15.18
2023-01-10T17:02:17.886Z,15.14
2023-01-10T17:04:45.158Z,15.10
2023-01-10T17:07:12.719Z,15.09
2023-01-10T17:09:39.836Z,15.01
2023-01-10T17:12:13.638Z,15.00
2023-01-10T17:14:40.655Z,14.95
2023-01-10T17:17:07.543Z,14.85
2023-01-10T17:19:34.610Z,14.83
2023-01-10T17:22:01.516Z,14.82
2023-01-10T17:24:30.025Z,14.76
2023-01-10T17:26:57.422Z,14.74
2023-01-10T17:29:24.404Z,14.70
2023-01-10T17:31:51.469Z,14.67
2023-01-10T17:34:18.609Z,14.66
2023-01-10T17:36:45.488Z,14.66
2023-01-10T17:39:12.475Z,14.63
2023-01-10T17:41:39.666Z,14.58
2023-01-10T17:44:06.616Z,14.58
2023-01-10T17:46:33.918Z,14.53
2023-01-10T17:49:02.651Z,14.52
2023-01-10T17:51:29.626Z,14.47
2023-01-10T17:53:56.762Z,14.46
2023-01-10T17:56:24.686Z,14.45
2023-01-10T17:58:53.091Z,14.44
2023-01-10T18:01:25.183Z,14.40
2023-01-10T18:03:53.437Z,14.39
2023-01-10T18:06:25.070Z,14.39
2023-01-10T18:08:53.429Z,14.43
2023-01-10T18:11:21.565Z,14.37
2023-01-10T18:13:48.494Z,14.38
2023-01-10T18:16:15.495Z,14.39
2023-01-10T18:18:42.480Z,14.38
2023-01-10T18:21:14.622Z,14.34
2023-01-10T18:23:42.002Z,14.34
2023-01-10T18:26:11.599Z,14.36
2023-01-10T18:28:43.305Z,14.39
2023-01-10T18:31:16.781Z,14.35
2023-01-10T18:33:45.893Z,14.31
2023-01-10T18:36:16.185Z,14.31
2023-01-10T18:38:43.764Z,14.26
2023-01-10T18:41:11.608Z,14.25
2023-01-10T18:43:38.762Z,14.22
2023-01-10T18:46:12.939Z,14.21
2023-01-10T18:48:40.481Z,14.19
2023-01-10T18:51:09.109Z,14.16
2023-01-10T18:53:36.321Z,14.13
2023-01-10T18:56:04.890Z,14.14
2023-01-10T18:58:40.485Z,14.12
2023-01-10T19:01:19.766Z,14.09
2023-01-10T19:03:47.450Z,14.07
2023-01-10T19:06:16.939Z,14.07
2023-01-10T19:08:46.020Z,14.06
2023-01-10T19:11:16.033Z,14.04
2023-01-10T19:13:49.521Z,14.05
2023-01-10T19:16:20.678Z,14.03
2023-01-10T19:18:58.794Z,13.99
2023-01-10T19:21:27.294Z,13.96
2023-01-10T19:23:55.946Z,13.93
2023-01-10T19:26:24.392Z,13.90
2023-01-10T19:28:51.822Z,13.87
2023-01-10T19:31:24.234Z,13.87
2023-01-10T19:33:51.699Z,13.82
2023-01-10T19:36:20.501Z,13.80
2023-01-10T19:38:48.019Z,13.75
2023-01-10T19:41:16.452Z,13.72
2023-01-10T19:43:43.537Z,13.64
2023-01-10T19:46:13.016Z,13.62
2023-01-10T19:48:40.043Z,13.57
2023-01-10T19:51:12.596Z,13.53
2023-01-10T19:53:42.381Z,13.50
2023-01-10T19:56:10.078Z,13.46
2023-01-10T19:58:38.527Z,13.40
2023-01-10T20:01:12.410Z,13.37
2023-01-10T20:03:42.455Z,13.30
2023-01-10T20:06:14.123Z,13.27
2023-01-10T20:08:41.552Z,13.24
2023-01-10T20:11:08.883Z,13.23
2023-01-10T20:13:38.546Z,13.16
2023-01-10T20:16:06.590Z,13.12
2023-01-10T20:18:33.657Z,13.08
2023-01-10T20:21:06.998Z,13.05
2023-01-10T20:23:36.367Z,13.01
2023-01-10T20:26:06.756Z,13.00
2023-01-10T20:28:34.605Z,12.96
2023-01-10T20:31:02.207Z,12.90
2023-01-10T20:33:34.252Z,12.86
2023-01-10T20:36:04.370Z,12.84
2023-01-10T20:38:33.963Z,12.82
2023-01-10T20:41:07.827Z,12.81
2023-01-10T20:43:40.571Z,12.80
2023-01-10T20:46:17.179Z,12.78
2023-01-10T20:48:48.066Z,12.76
2023-01-10T20:51:22.447Z,12.74
2023-01-10T20:53:51.285Z,12.67
2023-01-10T20:56:21.739Z,12.62
2023-01-10T20:58:51.562Z,12.63
2023-01-10T21:01:33.607Z,12.61
2023-01-10T21:04:02.574Z,12.56
2023-01-10T21:06:29.713Z,12.56
2023-01-10T21:08:57.304Z,12.53
2023-01-10T21:11:25.083Z,12.50
2023-01-10T21:13:52.522Z,12.44
2023-01-10T21:16:22.329Z,12.44
2023-01-10T21:18:50.723Z,12.37
2023-01-10T21:21:22.578Z,12.36
2023-01-10T21:23:50.057Z,12.31
2023-01-10T21:26:17.324Z,12.29
2023-01-10T21:28:49.010Z,12.25
2023-01-10T21:31:18.760Z,12.19
2023-01-10T21:33:46.099Z,12.18
2023-01-10T21:36:14.503Z,12.16
2023-01-10T21:38:41.900Z,12.13
2023-01-10T21:41:38.854Z,12.09
2023-01-10T21:44:07.579Z,12.00
2023-01-10T21:46:35.492Z,11.99
2023-01-10T21:49:03.593Z,11.95
2023-01-10T21:51:30.546Z,11.91
2023-01-10T21:53:57.906Z,11.89
2023-01-10T21:56:25.090Z,11.83
2023-01-10T21:58:52.427Z,11.80
2023-01-10T22:01:19.501Z,11.77
2023-01-10T22:03:46.680Z,11.75
2023-01-10T22:06:14.015Z,11.72
2023-01-10T22:08:41.569Z,11.68
2023-01-10T22:11:10.916Z,11.64
2023-01-10T22:13:38.656Z,11.60
2023-01-10T22:16:07.106Z,11.54
2023-01-10T22:18:34.343Z,11.51
2023-01-10T22:21:03.646Z,11.54
2023-01-10T22:23:34.738Z,11.52
2023-01-10T22:26:07.144Z,11.52
2023-01-10T22:28:34.453Z,11.51
2023-01-10T22:31:01.931Z,11.49
2023-01-10T22:33:44.850Z,11.50
2023-01-10T22:36:17.353Z,11.48
2023-01-10T22:38:46.823Z,11.48
2023-01-10T22:41:17.098Z,11.48
2023-01-10T22:43:52.182Z,11.49
2023-01-10T22:46:19.438Z,11.51
2023-01-10T22:48:46.572Z,11.48
2023-01-10T22:51:15.058Z,11.50
2023-01-10T22:53:42.288Z,11.51
2023-01-10T22:56:11.377Z,11.49
2023-01-10T22:58:38.473Z,11.50
2023-01-10T23:01:07.032Z,11.47
2023-01-10T23:03:34.630Z,11.46
2023-01-10T23:06:01.585Z,11.44
2023-01-10T23:08:28.608Z,11.47
2023-01-10T23:10:55.491Z,11.50
2023-01-10T23:13:23.216Z,11.56
2023-01-10T23:16:28.610Z,11.64
2023-01-10T23:18:57.628Z,11.72
2023-01-10T23:21:25.562Z,11.73
2023-01-10T23:23:52.454Z,11.72
2023-01-10T23:26:19.497Z,11.72
2023-01-10T23:28:49.263Z,11.75
2023-01-10T23:31:24.309Z,11.74
2023-01-10T23:33:52.363Z,11.74
2023-01-10T23:36:19.751Z,11.72
2023-01-10T23:38:48.041Z,11.64
2023-01-10T23:41:15.088Z,11.58
2023-01-10T23:43:42.786Z,11.52
2023-01-10T23:46:09.820Z,11.44
2023-01-10T23:48:36.782Z,11.37
2023-01-10T23:51:03.836Z,11.32
2023-01-10T23:53:30.721Z,11.28
2023-01-10T23:55:58.210Z,11.23
2023-01-10T23:58:25.800Z,11.19
